長春 の空港の天気 - METARとTAF

長春龍嘉国際空港 ( ZYCC / CGQ ) - 中国 吉林省長春市
飛行場実況気象(Metar)
観測時間11/19 17:00 CST (11/19 09:00 UTC)
風向・風速西 1m/s
視程10km以上
天気現象
なし
気温-9℃
湿度48%
気圧1023hPa
METARZYCC 190900Z 26001MPS CAVOK M09/M18 Q1023 NOSIG
過去の天気等 Google飛行場航空写真 Wunderground天気予報

過去48時間のMETAR

飛行場予報(TAF)
発表時間: 11/19 09:01 CST (11/19 01:01 UTC)
予報対象時間: 19日14時 CST ~ 20日14時 CST
風向・風速西南西 5m/s
視程6000m
少しの雲 雲底高度 790m
TAF ZYCC 190101Z 1906/2006 24005MPS 6000 FEW026 TXM06/06Z TNM14/21Z